Terminal Aerodrome Forecast
Issued by NWS

Home | Current Version | Previous Version | Text Only | Print | Product List | Glossary On
Versions: 1 2 3 4 5 6 7 8 9 10 11 12 13 14
000
FTUS46 KSGX 061125
TAFTRM
TAF
KTRM 061125Z 0612/0712 34010KT P6SM BKN100
     FM061900 13012KT P6SM VCSH BKN070
     FM070000 32012G18KT P6SM VCSH BKN100
     FM070700 33011KT P6SM SCT100=

USA.gov is the U.S. government's official web portal to all federal, state and local government web resources and services.